Time;durP1;ratioP1;P1;durP2;ratioP2;P2;SDS_P1;SDS_P2;PMS_P1;PMS_P2;Temp;Humidity;BMP_temperature;BMP_pressure;BME280_temperature;BME280_humidity;BME280_pressure;Samples;Min_cycle;Max_cycle;Signal;HPM_P1;HPM_P2
2023/09/21 00:01:07;;;;;;;4.72;1.80;;;;;;;;;;4874853;29;20033;-73
2023/09/21 00:03:34;;;;;;;6.32;1.67;;;;;;;;;;4855486;29;20060;-73
2023/09/21 00:06:01;;;;;;;6.78;1.92;;;;;;;;;;4871340;29;20041;-73
2023/09/21 00:08:27;;;;;;;4.15;1.60;;;;;;;;;;4876465;29;20037;-73
2023/09/21 00:10:54;;;;;;;6.75;1.58;;;;;;;;;;4859282;29;20428;-73
2023/09/21 00:13:27;;;;;;;6.63;2.17;;;;;;;;;;4876099;29;20036;-74
2023/09/21 00:15:57;;;;;;;8.52;1.77;;;;;;;;;;4875880;29;20076;-73
2023/09/21 00:18:24;;;;;;;5.70;1.52;;;;;;;;;;4876326;29;20041;-73
2023/09/21 00:20:56;;;;;;;3.55;1.67;;;;;;;;;;4857829;29;20065;-73
2023/09/21 00:23:25;;;;;;;6.95;1.80;;;;;;;;;;4876213;29;20085;-74
2023/09/21 00:25:58;;;;;;;4.35;1.50;;;;;;;;;;4874368;29;20064;-72
2023/09/21 00:28:24;;;;;;;5.57;1.63;;;;;;;;;;4875239;29;20444;-73
2023/09/21 00:30:57;;;;;;;5.57;1.95;;;;;;;;;;4863363;29;20025;-73
2023/09/21 00:33:23;;;;;;;4.25;1.50;;;;;;;;;;4869862;29;20044;-73
2023/09/21 00:35:49;;;;;;;3.05;1.58;;;;;;;;;;4876259;29;20543;-73
2023/09/21 00:38:15;;;;;;;5.32;1.58;;;;;;;;;;4872245;29;20040;-73
2023/09/21 00:40:42;;;;;;;8.82;2.22;;;;;;;;;;4877176;29;20112;-73
2023/09/21 00:43:10;;;;;;;3.40;1.70;;;;;;;;;;4883114;29;20085;-73
2023/09/21 00:45:36;;;;;;;6.32;1.25;;;;;;;;;;4876501;29;20037;-73
2023/09/21 00:48:04;;;;;;;4.07;1.60;;;;;;;;;;4871969;29;20044;-73
2023/09/21 00:50:30;;;;;;;2.80;1.52;;;;;;;;;;4877233;29;20036;-73
2023/09/21 00:52:56;;;;;;;6.88;1.70;;;;;;;;;;4878041;29;20033;-73
2023/09/21 00:55:25;;;;;;;4.68;1.90;;;;;;;;;;4865122;29;20093;-73
2023/09/21 00:57:55;;;;;;;8.50;2.28;;;;;;;;;;4869583;29;20029;-73
2023/09/21 01:00:26;;;;;;;6.80;1.60;;;;;;;;;;4886862;29;20593;-73
2023/09/21 01:02:53;;;;;;;4.90;1.50;;;;;;;;;;4879302;29;20451;-73
2023/09/21 01:05:21;;;;;;;5.13;1.48;;;;;;;;;;4879058;29;20336;-74
2023/09/21 01:07:48;;;;;;;4.38;1.67;;;;;;;;;;4871594;29;20041;-73
2023/09/21 01:10:17;;;;;;;5.50;1.52;;;;;;;;;;4870185;29;20049;-73
2023/09/21 01:12:48;;;;;;;3.05;1.52;;;;;;;;;;4863312;29;20033;-73
2023/09/21 01:15:14;;;;;;;4.65;1.85;;;;;;;;;;4855618;29;20048;-73
2023/09/21 01:17:45;;;;;;;2.83;1.60;;;;;;;;;;4872343;29;20043;-73
2023/09/21 01:20:27;;;;;;;3.22;1.65;;;;;;;;;;4877355;29;20052;-73
2023/09/21 01:23:07;;;;;;;3.67;1.65;;;;;;;;;;4870496;29;20029;-73
2023/09/21 01:25:33;;;;;;;4.80;2.20;;;;;;;;;;4854150;29;20041;-74
2023/09/21 01:27:59;;;;;;;4.88;1.88;;;;;;;;;;4878353;29;20496;-74
2023/09/21 01:30:25;;;;;;;5.45;1.77;;;;;;;;;;4859750;29;20062;-74
2023/09/21 01:32:52;;;;;;;6.95;2.42;;;;;;;;;;4873815;29;20096;-74
2023/09/21 01:35:19;;;;;;;2.45;1.40;;;;;;;;;;4857688;29;20044;-74
2023/09/21 01:37:46;;;;;;;4.10;1.98;;;;;;;;;;4877981;29;20040;-74
2023/09/21 01:40:16;;;;;;;6.30;1.65;;;;;;;;;;4878888;29;20502;-74
2023/09/21 01:42:48;;;;;;;7.10;2.05;;;;;;;;;;4876214;29;20745;-74
2023/09/21 01:45:14;;;;;;;3.85;1.85;;;;;;;;;;4866742;29;20043;-74
2023/09/21 01:47:41;;;;;;;3.97;1.80;;;;;;;;;;4878617;29;20440;-74
2023/09/21 01:50:09;;;;;;;6.15;1.65;;;;;;;;;;4875085;29;20037;-74
2023/09/21 01:52:35;;;;;;;5.97;1.63;;;;;;;;;;4869886;29;20065;-74
2023/09/21 01:55:05;;;;;;;5.38;1.85;;;;;;;;;;4858635;29;20075;-77
2023/09/21 01:57:32;;;;;;;21.38;13.90;;;;;;;;;;4877989;29;20033;-75
2023/09/21 01:59:58;;;;;;;5.57;2.03;;;;;;;;;;4878172;29;20069;-74
2023/09/21 02:02:24;;;;;;;4.45;2.35;;;;;;;;;;4877675;29;20058;-75
2023/09/21 02:04:50;;;;;;;5.68;1.67;;;;;;;;;;4877727;29;20374;-73
2023/09/21 02:07:16;;;;;;;4.75;1.58;;;;;;;;;;4878553;29;20037;-74
2023/09/21 02:09:42;;;;;;;2.70;1.50;;;;;;;;;;4874601;29;20394;-74
2023/09/21 02:12:08;;;;;;;3.00;1.20;;;;;;;;;;4879004;29;20444;-73
2023/09/21 02:14:34;;;;;;;3.90;1.55;;;;;;;;;;4877175;29;20040;-74
2023/09/21 02:17:00;;;;;;;5.93;2.35;;;;;;;;;;4877519;29;20093;-74
2023/09/21 02:19:26;;;;;;;5.10;1.58;;;;;;;;;;4861344;29;20498;-74
2023/09/21 02:21:54;;;;;;;4.30;1.85;;;;;;;;;;4877776;29;20068;-74
2023/09/21 02:24:20;;;;;;;4.72;1.77;;;;;;;;;;4876305;29;20029;-74
2023/09/21 02:26:46;;;;;;;5.18;1.63;;;;;;;;;;4871908;29;20536;-74
2023/09/21 02:29:13;;;;;;;3.50;1.55;;;;;;;;;;4859871;29;20054;-74
2023/09/21 02:31:42;;;;;;;8.82;2.25;;;;;;;;;;4875427;29;20033;-74
2023/09/21 02:34:09;;;;;;;5.13;1.73;;;;;;;;;;4854029;29;20026;-74
2023/09/21 02:36:35;;;;;;;2.58;1.40;;;;;;;;;;4869637;29;20053;-73
2023/09/21 02:39:01;;;;;;;7.97;4.95;;;;;;;;;;4867293;29;20034;-75
2023/09/21 02:41:27;;;;;;;6.18;2.72;;;;;;;;;;4871300;29;20037;-76
2023/09/21 02:43:53;;;;;;;5.55;1.85;;;;;;;;;;4877909;29;20387;-72
2023/09/21 02:46:19;;;;;;;3.17;1.70;;;;;;;;;;4875006;29;20044;-73
2023/09/21 02:48:46;;;;;;;5.25;1.80;;;;;;;;;;4876463;29;20055;-72
2023/09/21 02:51:12;;;;;;;5.45;1.88;;;;;;;;;;4875788;29;20481;-72
2023/09/21 02:53:38;;;;;;;4.20;1.80;;;;;;;;;;4858795;29;20041;-71
2023/09/21 02:56:07;;;;;;;8.07;1.75;;;;;;;;;;4847957;29;20033;-72
2023/09/21 02:58:33;;;;;;;9.18;1.85;;;;;;;;;;4876951;29;20514;-72
2023/09/21 03:00:59;;;;;;;1.45;1.30;;;;;;;;;;4874241;29;20037;-72
2023/09/21 03:03:27;;;;;;;6.68;2.40;;;;;;;;;;4860275;29;20386;-73
2023/09/21 03:05:55;;;;;;;37.42;22.98;;;;;;;;;;4876193;29;20124;-73
2023/09/21 03:08:22;;;;;;;2.90;1.48;;;;;;;;;;4876872;29;20041;-73
2023/09/21 03:10:50;;;;;;;4.68;1.50;;;;;;;;;;4872098;29;20033;-72
2023/09/21 03:13:17;;;;;;;3.80;1.52;;;;;;;;;;4874142;29;20037;-73
2023/09/21 03:15:44;;;;;;;3.40;1.40;;;;;;;;;;4875191;29;20044;-73
2023/09/21 03:18:10;;;;;;;3.38;1.90;;;;;;;;;;4876208;29;20041;-72
2023/09/21 03:20:37;;;;;;;5.95;2.20;;;;;;;;;;4876045;29;20037;-72
2023/09/21 03:23:05;;;;;;;4.10;1.80;;;;;;;;;;4870821;29;20029;-72
2023/09/21 03:25:40;;;;;;;3.15;1.95;;;;;;;;;;4876541;29;20040;-72
2023/09/21 03:28:10;;;;;;;4.75;1.75;;;;;;;;;;4876808;29;20084;-71
2023/09/21 03:30:36;;;;;;;4.82;1.65;;;;;;;;;;4858062;29;20076;-73
2023/09/21 03:33:05;;;;;;;4.82;1.92;;;;;;;;;;4854335;29;20037;-72
2023/09/21 03:35:31;;;;;;;2.53;1.40;;;;;;;;;;4848920;29;20041;-72
2023/09/21 03:37:59;;;;;;;2.92;1.63;;;;;;;;;;4857935;29;20105;-72
2023/09/21 03:40:25;;;;;;;13.77;1.85;;;;;;;;;;4841472;29;20040;-71
2023/09/21 03:42:52;;;;;;;1.83;1.20;;;;;;;;;;4856955;29;20085;-72
2023/09/21 03:45:18;;;;;;;6.60;1.63;;;;;;;;;;4843888;29;20041;-72
2023/09/21 03:47:46;;;;;;;6.45;1.40;;;;;;;;;;4858250;29;20045;-73
2023/09/21 03:50:14;;;;;;;3.67;1.40;;;;;;;;;;4857095;29;20041;-72
2023/09/21 03:52:42;;;;;;;5.15;1.45;;;;;;;;;;4857953;29;20562;-73
2023/09/21 03:55:10;;;;;;;3.92;1.83;;;;;;;;;;4847879;29;20476;-72
2023/09/21 03:57:36;;;;;;;5.40;1.75;;;;;;;;;;4841133;29;20113;-73
2023/09/21 04:00:08;;;;;;;3.38;1.60;;;;;;;;;;4856881;29;20424;-73
2023/09/21 04:02:34;;;;;;;2.03;1.37;;;;;;;;;;4852461;29;20445;-73
2023/09/21 04:05:09;;;;;;;5.32;1.63;;;;;;;;;;4856607;29;20029;-72
2023/09/21 04:07:35;;;;;;;4.22;1.60;;;;;;;;;;4855254;29;20041;-73
2023/09/21 04:10:01;;;;;;;4.18;1.73;;;;;;;;;;4855163;29;20085;-73
2023/09/21 04:12:27;;;;;;;8.32;1.77;;;;;;;;;;4856886;29;20033;-73
2023/09/21 04:14:53;;;;;;;3.58;1.55;;;;;;;;;;4858001;29;20084;-73
2023/09/21 04:17:19;;;;;;;5.93;1.42;;;;;;;;;;4850130;29;20089;-73
2023/09/21 04:19:45;;;;;;;6.20;2.00;;;;;;;;;;4853020;29;20060;-72
2023/09/21 04:22:12;;;;;;;5.97;1.55;;;;;;;;;;4857855;29;20459;-72
2023/09/21 04:24:39;;;;;;;7.95;1.77;;;;;;;;;;4857240;29;20120;-72
2023/09/21 04:27:05;;;;;;;6.53;1.85;;;;;;;;;;4861528;29;20053;-73
2023/09/21 04:29:31;;;;;;;8.02;1.33;;;;;;;;;;4868109;29;20124;-73
2023/09/21 04:31:58;;;;;;;3.28;1.35;;;;;;;;;;4867246;29;20036;-73
2023/09/21 04:34:24;;;;;;;2.80;1.60;;;;;;;;;;4878965;29;20049;-73
2023/09/21 04:36:50;;;;;;;7.07;2.13;;;;;;;;;;4880673;29;20048;-73
2023/09/21 04:39:17;;;;;;;4.40;1.60;;;;;;;;;;4877790;29;20045;-72
2023/09/21 04:41:44;;;;;;;3.45;1.60;;;;;;;;;;4856435;29;20044;-72
2023/09/21 04:44:10;;;;;;;3.72;1.70;;;;;;;;;;4862987;29;20126;-73
2023/09/21 04:46:36;;;;;;;7.50;1.38;;;;;;;;;;4880180;29;20085;-72
2023/09/21 04:49:04;;;;;;;3.97;1.30;;;;;;;;;;4878728;29;20025;-72
2023/09/21 04:51:30;;;;;;;2.33;1.63;;;;;;;;;;4831319;29;20053;-72
2023/09/21 04:53:56;;;;;;;4.07;1.63;;;;;;;;;;4869861;29;20044;-73
2023/09/21 04:56:22;;;;;;;4.18;1.30;;;;;;;;;;4879579;29;20049;-73
2023/09/21 04:58:50;;;;;;;4.43;1.30;;;;;;;;;;4879592;29;20037;-72
2023/09/21 05:01:16;;;;;;;4.10;1.75;;;;;;;;;;4861872;29;20033;-73
2023/09/21 05:03:43;;;;;;;2.40;1.50;;;;;;;;;;4875927;29;20052;-72
2023/09/21 05:06:10;;;;;;;1.92;1.25;;;;;;;;;;4879671;29;20495;-73
2023/09/21 05:08:36;;;;;;;6.82;1.67;;;;;;;;;;4873900;29;20045;-72
2023/09/21 05:11:04;;;;;;;6.20;1.88;;;;;;;;;;4872061;29;20047;-72
2023/09/21 05:13:30;;;;;;;6.15;1.50;;;;;;;;;;4862123;29;20391;-73
2023/09/21 05:15:56;;;;;;;4.28;1.60;;;;;;;;;;4862231;29;20573;-73
2023/09/21 05:18:22;;;;;;;5.93;1.73;;;;;;;;;;4876505;29;20124;-72
2023/09/21 05:20:49;;;;;;;5.35;1.90;;;;;;;;;;4879097;29;20037;-73
2023/09/21 05:23:15;;;;;;;3.88;1.77;;;;;;;;;;4878812;29;20041;-73
2023/09/21 05:25:41;;;;;;;3.45;1.48;;;;;;;;;;4877543;29;20501;-73
2023/09/21 05:28:07;;;;;;;5.57;1.63;;;;;;;;;;4850044;29;20033;-73
2023/09/21 05:30:34;;;;;;;2.97;1.48;;;;;;;;;;4865332;29;20064;-73
2023/09/21 05:33:01;;;;;;;3.50;1.73;;;;;;;;;;4859930;29;20489;-72
2023/09/21 05:35:27;;;;;;;6.63;1.50;;;;;;;;;;4857287;29;20033;-73
2023/09/21 05:37:53;;;;;;;5.88;2.20;;;;;;;;;;4876656;29;20554;-72
2023/09/21 05:40:21;;;;;;;6.07;1.83;;;;;;;;;;4872332;29;20089;-72
2023/09/21 05:42:47;;;;;;;2.95;2.08;;;;;;;;;;4870932;29;20025;-73
2023/09/21 05:45:13;;;;;;;9.70;3.58;;;;;;;;;;4881660;29;20033;-75
2023/09/21 05:47:39;;;;;;;5.38;3.55;;;;;;;;;;4878847;29;20116;-74
2023/09/21 05:50:06;;;;;;;4.72;1.48;;;;;;;;;;4878728;29;20161;-76
2023/09/21 05:52:35;;;;;;;5.65;1.70;;;;;;;;;;4878737;29;20487;-73
2023/09/21 05:55:01;;;;;;;2.95;1.80;;;;;;;;;;4876081;29;20118;-73
2023/09/21 05:57:27;;;;;;;4.25;1.92;;;;;;;;;;4856859;29;20151;-73
2023/09/21 05:59:54;;;;;;;6.22;1.73;;;;;;;;;;4872899;29;20033;-73
2023/09/21 06:02:20;;;;;;;4.72;2.13;;;;;;;;;;4877143;29;20460;-74
2023/09/21 06:04:46;;;;;;;6.63;1.52;;;;;;;;;;4877616;29;20075;-73
2023/09/21 06:07:14;;;;;;;4.28;1.45;;;;;;;;;;4854857;29;20046;-74
2023/09/21 06:09:43;;;;;;;4.88;1.60;;;;;;;;;;4876258;29;20028;-73
2023/09/21 06:12:11;;;;;;;4.03;1.67;;;;;;;;;;4875618;29;20077;-74
2023/09/21 06:14:37;;;;;;;2.08;1.48;;;;;;;;;;4855373;29;20672;-73
2023/09/21 06:17:07;;;;;;;3.65;1.60;;;;;;;;;;4874961;29;20108;-72
2023/09/21 06:19:34;;;;;;;4.38;1.50;;;;;;;;;;4853723;29;20030;-73
2023/09/21 06:22:00;;;;;;;4.82;1.73;;;;;;;;;;4876362;29;20072;-72
2023/09/21 06:24:26;;;;;;;3.67;1.70;;;;;;;;;;4877555;29;20045;-73
2023/09/21 06:26:52;;;;;;;3.28;1.60;;;;;;;;;;4874162;29;20086;-77
2023/09/21 06:29:22;;;;;;;10.82;5.93;;;;;;;;;;4868630;29;20057;-74
2023/09/21 06:31:52;;;;;;;3.47;2.10;;;;;;;;;;4862816;29;20689;-75
2023/09/21 06:34:22;;;;;;;2.30;1.60;;;;;;;;;;4875904;29;20021;-75
2023/09/21 06:36:48;;;;;;;9.57;2.53;;;;;;;;;;4869395;29;20057;-73
2023/09/21 06:39:16;;;;;;;6.47;1.77;;;;;;;;;;4874374;29;20176;-73
2023/09/21 06:41:44;;;;;;;5.95;2.85;;;;;;;;;;4870584;29;20055;-72
2023/09/21 06:44:10;;;;;;;3.58;1.73;;;;;;;;;;4876209;29;20082;-74
2023/09/21 06:46:36;;;;;;;4.88;2.20;;;;;;;;;;4873152;29;20105;-72
2023/09/21 06:49:03;;;;;;;4.65;1.55;;;;;;;;;;4875936;29;20045;-75
2023/09/21 06:51:29;;;;;;;2.78;2.00;;;;;;;;;;4875951;29;20030;-77
2023/09/21 06:53:58;;;;;;;3.95;1.83;;;;;;;;;;4873880;29;20048;-75
2023/09/21 06:56:29;;;;;;;3.05;1.80;;;;;;;;;;4870585;29;20029;-74
2023/09/21 06:58:56;;;;;;;3.55;2.20;;;;;;;;;;4850623;29;20033;-74
2023/09/21 07:01:22;;;;;;;5.65;2.33;;;;;;;;;;4872765;29;20044;-74
2023/09/21 07:03:48;;;;;;;4.80;1.90;;;;;;;;;;4874380;29;20041;-76
2023/09/21 07:06:15;;;;;;;7.93;3.30;;;;;;;;;;4876384;29;20033;-78
2023/09/21 07:08:41;;;;;;;6.63;2.90;;;;;;;;;;4870981;29;20036;-80
2023/09/21 07:11:07;;;;;;;5.18;1.90;;;;;;;;;;4878147;29;20039;-81
2023/09/21 07:13:33;;;;;;;2.47;1.60;;;;;;;;;;4876499;29;20041;-78
2023/09/21 07:15:59;;;;;;;3.80;2.08;;;;;;;;;;4876383;29;20491;-84
2023/09/21 07:18:26;;;;;;;3.63;2.03;;;;;;;;;;4874837;29;20049;-77
2023/09/21 07:20:53;;;;;;;3.78;2.10;;;;;;;;;;4870031;29;20028;-77
2023/09/21 07:23:19;;;;;;;7.95;2.05;;;;;;;;;;4872321;29;20041;-77
2023/09/21 07:25:45;;;;;;;13.18;6.65;;;;;;;;;;4859836;29;20037;-84
2023/09/21 07:28:12;;;;;;;8.85;5.30;;;;;;;;;;4869185;29;20108;-81
2023/09/21 07:30:38;;;;;;;6.53;3.28;;;;;;;;;;4861335;29;20060;-88
2023/09/21 07:33:06;;;;;;;7.88;4.90;;;;;;;;;;4872119;29;20045;-77
2023/09/21 07:35:33;;;;;;;6.75;4.25;;;;;;;;;;4876231;29;20704;-74
2023/09/21 07:37:59;;;;;;;13.02;3.75;;;;;;;;;;4880123;29;20032;-73
2023/09/21 07:40:25;;;;;;;7.70;4.45;;;;;;;;;;4851821;29;20048;-70
2023/09/21 07:42:51;;;;;;;5.85;2.65;;;;;;;;;;4867317;29;20841;-81
2023/09/21 07:45:17;;;;;;;7.82;2.75;;;;;;;;;;4872457;29;20364;-78
2023/09/21 07:47:47;;;;;;;29.08;4.30;;;;;;;;;;4871879;29;20037;-75
2023/09/21 07:50:14;;;;;;;17.95;2.55;;;;;;;;;;4874867;29;20124;-76
2023/09/21 07:52:40;;;;;;;9.50;2.63;;;;;;;;;;4877313;29;20048;-74
2023/09/21 07:55:07;;;;;;;11.95;2.85;;;;;;;;;;4859789;29;20144;-76
2023/09/21 07:57:34;;;;;;;89.90;5.45;;;;;;;;;;4854270;29;20054;-77
2023/09/21 08:00:00;;;;;;;8.77;2.05;;;;;;;;;;4873112;29;20049;-73
2023/09/21 08:02:27;;;;;;;21.10;2.00;;;;;;;;;;4876350;29;20487;-75
2023/09/21 08:04:54;;;;;;;4.35;1.25;;;;;;;;;;4874948;29;20120;-78
2023/09/21 08:07:24;;;;;;;0.93;0.77;;;;;;;;;;4867783;29;20040;-75
2023/09/21 08:09:50;;;;;;;2.42;0.90;;;;;;;;;;4874212;29;20037;-82
2023/09/21 08:12:16;;;;;;;3.13;0.98;;;;;;;;;;4868880;29;20543;-81
2023/09/21 08:14:43;;;;;;;5.65;1.25;;;;;;;;;;4875951;29;20150;-73
2023/09/21 08:17:10;;;;;;;180.38;12.20;;;;;;;;;;4873901;29;20127;-71
2023/09/21 08:19:37;;;;;;;24.05;2.40;;;;;;;;;;4873564;29;20044;-71
2023/09/21 08:22:03;;;;;;;22.35;1.88;;;;;;;;;;4875353;29;20059;-71
2023/09/21 08:24:29;;;;;;;21.38;3.22;;;;;;;;;;4874839;29;20076;-69
2023/09/21 08:26:55;;;;;;;4.22;1.15;;;;;;;;;;4875270;29;20483;-71
2023/09/21 08:29:21;;;;;;;9.15;1.00;;;;;;;;;;4869189;29;20057;-72
2023/09/21 08:31:47;;;;;;;10.38;1.50;;;;;;;;;;4874627;29;20033;-79
2023/09/21 08:34:13;;;;;;;10.75;0.80;;;;;;;;;;4873606;29;20041;-78
2023/09/21 08:36:40;;;;;;;2.08;0.80;;;;;;;;;;4869986;29;20047;-80
2023/09/21 08:39:07;;;;;;;3.33;0.70;;;;;;;;;;4876223;29;20480;-80
2023/09/21 08:41:35;;;;;;;1.90;0.80;;;;;;;;;;4871079;29;20077;-80
2023/09/21 08:44:03;;;;;;;2.35;0.70;;;;;;;;;;4876687;29;20124;-79
2023/09/21 08:46:29;;;;;;;1.15;0.77;;;;;;;;;;4873531;29;20510;-79
2023/09/21 08:48:58;;;;;;;1.15;0.70;;;;;;;;;;4857711;29;20165;-80
2023/09/21 08:51:24;;;;;;;3.10;0.93;;;;;;;;;;4875673;29;20060;-79
2023/09/21 08:53:52;;;;;;;1.88;0.73;;;;;;;;;;4876583;29;20069;-79
2023/09/21 08:56:22;;;;;;;1.90;0.70;;;;;;;;;;4877016;29;20116;-79
2023/09/21 08:58:50;;;;;;;1.70;0.60;;;;;;;;;;4859370;29;20071;-79
2023/09/21 09:01:17;;;;;;;3.60;1.10;;;;;;;;;;4876887;29;20034;-79
2023/09/21 09:03:43;;;;;;;0.80;0.65;;;;;;;;;;4876693;29;20032;-80
2023/09/21 09:06:10;;;;;;;2.25;0.80;;;;;;;;;;4875123;29;20041;-80
2023/09/21 09:08:36;;;;;;;1.42;0.98;;;;;;;;;;4861682;29;20037;-80
2023/09/21 09:11:02;;;;;;;2.28;0.65;;;;;;;;;;4875599;29;20029;-79
2023/09/21 09:13:31;;;;;;;1.88;0.80;;;;;;;;;;4878291;29;20033;-80
2023/09/21 09:15:59;;;;;;;23.38;1.73;;;;;;;;;;4877714;29;20402;-79
2023/09/21 09:18:26;;;;;;;1.83;0.90;;;;;;;;;;4875909;29;20029;-80
2023/09/21 09:20:52;;;;;;;3.00;1.02;;;;;;;;;;4873929;29;20104;-80
2023/09/21 09:23:18;;;;;;;0.90;0.68;;;;;;;;;;4868148;29;20038;-79
2023/09/21 09:25:44;;;;;;;1.40;0.70;;;;;;;;;;4875837;29;20037;-79
2023/09/21 09:28:10;;;;;;;28.70;22.30;;;;;;;;;;4874800;29;20041;-80
2023/09/21 09:30:37;;;;;;;2.97;0.88;;;;;;;;;;4873580;29;20049;-78
2023/09/21 09:33:03;;;;;;;1.80;1.08;;;;;;;;;;4878033;29;20052;-78
2023/09/21 09:35:32;;;;;;;3.40;1.50;;;;;;;;;;4873477;29;20045;-79
2023/09/21 09:37:58;;;;;;;2.75;0.93;;;;;;;;;;4872972;29;20526;-82
2023/09/21 09:40:25;;;;;;;3.25;0.90;;;;;;;;;;4870480;29;20049;-78
2023/09/21 09:42:52;;;;;;;2.25;0.90;;;;;;;;;;4871471;29;20048;-79
2023/09/21 09:45:19;;;;;;;1.02;0.75;;;;;;;;;;4869481;29;20452;-77
2023/09/21 09:47:50;;;;;;;1.80;0.65;;;;;;;;;;4853986;29;20090;-77
2023/09/21 09:50:17;;;;;;;1.30;0.65;;;;;;;;;;4875417;29;20037;-77
2023/09/21 09:52:45;;;;;;;2.67;0.68;;;;;;;;;;4871198;29;20030;-78
2023/09/21 09:55:13;;;;;;;0.88;0.60;;;;;;;;;;4871946;29;20048;-77
2023/09/21 09:57:41;;;;;;;3.22;0.80;;;;;;;;;;4869250;29;20041;-77
2023/09/21 10:00:15;;;;;;;2.40;0.68;;;;;;;;;;4878761;29;20081;-76
2023/09/21 10:02:41;;;;;;;2.20;0.50;;;;;;;;;;4863928;29;20091;-78
2023/09/21 10:05:08;;;;;;;0.55;0.50;;;;;;;;;;4856247;29;20032;-77
2023/09/21 10:07:34;;;;;;;1.23;0.57;;;;;;;;;;4876618;29;20488;-80
2023/09/21 10:10:03;;;;;;;2.58;0.50;;;;;;;;;;4875172;29;20036;-79
2023/09/21 10:12:32;;;;;;;1.55;0.60;;;;;;;;;;4878601;29;20033;-77
2023/09/21 10:14:58;;;;;;;2.25;0.50;;;;;;;;;;4844050;29;20057;-78
2023/09/21 10:17:27;;;;;;;4.28;3.88;;;;;;;;;;4874561;29;20095;-78
2023/09/21 10:20:10;;;;;;;1.00;0.65;;;;;;;;;;4877585;29;20045;-77
2023/09/21 10:22:36;;;;;;;3.40;1.00;;;;;;;;;;4877772;29;20033;-76
2023/09/21 10:25:03;;;;;;;2.10;1.10;;;;;;;;;;4865887;29;20046;-77
2023/09/21 10:27:29;;;;;;;1.80;0.85;;;;;;;;;;4868175;29;20395;-77
2023/09/21 10:30:09;;;;;;;3.08;0.82;;;;;;;;;;4876967;29;20079;-77
2023/09/21 10:32:45;;;;;;;2.15;1.10;;;;;;;;;;4883273;29;20029;-77
2023/09/21 10:35:21;;;;;;;1.05;0.93;;;;;;;;;;4868069;29;20037;-77
2023/09/21 10:37:51;;;;;;;2.03;1.10;;;;;;;;;;4873222;29;20040;-77
2023/09/21 10:40:25;;;;;;;1.75;0.80;;;;;;;;;;4877427;29;20510;-76
2023/09/21 10:42:51;;;;;;;0.98;0.75;;;;;;;;;;4877195;29;20032;-77
2023/09/21 10:45:18;;;;;;;1.60;1.00;;;;;;;;;;4868847;29;20033;-76
2023/09/21 10:47:47;;;;;;;0.98;0.88;;;;;;;;;;4876707;29;20072;-77
2023/09/21 10:50:15;;;;;;;3.22;2.75;;;;;;;;;;4876935;29;20033;-76
2023/09/21 10:52:43;;;;;;;1.73;1.60;;;;;;;;;;4873985;29;20048;-76
2023/09/21 10:55:12;;;;;;;4.35;2.42;;;;;;;;;;4875033;29;20033;-77
2023/09/21 10:57:38;;;;;;;1.30;0.70;;;;;;;;;;4872914;29;20047;-75
2023/09/21 11:00:08;;;;;;;0.77;0.77;;;;;;;;;;4878460;29;20028;-77
2023/09/21 11:02:40;;;;;;;1.73;0.70;;;;;;;;;;4866842;29;20029;-78
2023/09/21 11:05:09;;;;;;;1.23;0.77;;;;;;;;;;4872606;29;20037;-77
2023/09/21 11:07:36;;;;;;;1.27;0.80;;;;;;;;;;4867608;29;20037;-77
2023/09/21 11:10:06;;;;;;;1.40;0.63;;;;;;;;;;4866495;29;20133;-77
2023/09/21 11:12:32;;;;;;;1.52;0.80;;;;;;;;;;4862455;29;20087;-77
2023/09/21 11:14:59;;;;;;;1.17;0.70;;;;;;;;;;4868453;29;20029;-77
2023/09/21 11:17:25;;;;;;;0.65;0.40;;;;;;;;;;4867747;29;20070;-77
2023/09/21 11:19:51;;;;;;;0.82;0.70;;;;;;;;;;4869634;29;20037;-77
2023/09/21 11:22:17;;;;;;;4.85;0.85;;;;;;;;;;4871520;29;20043;-77
2023/09/21 11:24:45;;;;;;;1.13;0.70;;;;;;;;;;4873688;29;20037;-77
2023/09/21 11:27:14;;;;;;;1.80;0.70;;;;;;;;;;4838323;29;20076;-77
2023/09/21 11:29:42;;;;;;;1.33;0.50;;;;;;;;;;4865851;29;20048;-76
2023/09/21 11:32:08;;;;;;;1.63;0.60;;;;;;;;;;4838076;29;20665;-78
2023/09/21 11:34:41;;;;;;;0.90;0.57;;;;;;;;;;4841079;29;20050;-77
2023/09/21 11:37:09;;;;;;;0.95;0.55;;;;;;;;;;4846590;29;20038;-76
2023/09/21 11:39:53;;;;;;;1.25;0.70;;;;;;;;;;4856305;29;20397;-77
2023/09/21 11:42:19;;;;;;;1.13;0.70;;;;;;;;;;4858448;29;20404;-79
2023/09/21 11:44:49;;;;;;;2.63;1.40;;;;;;;;;;4858106;29;20480;-78
2023/09/21 11:47:15;;;;;;;1.65;0.60;;;;;;;;;;4855868;29;20041;-78
2023/09/21 11:49:42;;;;;;;3.65;0.73;;;;;;;;;;4855051;29;20056;-76
2023/09/21 11:52:13;;;;;;;0.68;0.47;;;;;;;;;;4856309;29;20044;-80
2023/09/21 11:54:39;;;;;;;1.23;0.65;;;;;;;;;;4857658;29;20464;-78
2023/09/21 11:57:06;;;;;;;0.85;0.47;;;;;;;;;;4849150;29;20086;-78
2023/09/21 11:59:39;;;;;;;1.80;1.00;;;;;;;;;;4852183;29;20133;-77
2023/09/21 12:02:09;;;;;;;1.35;0.50;;;;;;;;;;4856086;29;20029;-77
2023/09/21 12:04:38;;;;;;;1.10;0.50;;;;;;;;;;4853663;29;20026;-79
2023/09/21 12:07:04;;;;;;;0.95;0.60;;;;;;;;;;4854756;29;20137;-77
2023/09/21 12:09:30;;;;;;;1.35;0.68;;;;;;;;;;4852664;29;20120;-77
2023/09/21 12:11:58;;;;;;;0.57;0.40;;;;;;;;;;4855684;29;20484;-77
2023/09/21 12:14:24;;;;;;;1.70;0.63;;;;;;;;;;4849481;29;20076;-77
2023/09/21 12:16:50;;;;;;;1.50;0.98;;;;;;;;;;4850488;29;20034;-81
2023/09/21 12:19:18;;;;;;;0.95;0.95;;;;;;;;;;4854336;29;20116;-78
2023/09/21 12:21:46;;;;;;;1.20;0.70;;;;;;;;;;4848610;29;20041;-74
2023/09/21 12:24:12;;;;;;;1.95;1.58;;;;;;;;;;4845728;29;20067;-75
2023/09/21 12:26:38;;;;;;;31.38;21.63;;;;;;;;;;4854218;29;20050;-76
2023/09/21 12:29:04;;;;;;;2.85;1.25;;;;;;;;;;4841448;29;20034;-74
2023/09/21 12:31:30;;;;;;;1.60;0.70;;;;;;;;;;4865757;29;21798;-75
2023/09/21 12:33:56;;;;;;;3.13;0.95;;;;;;;;;;4849516;29;20029;-74
2023/09/21 12:36:23;;;;;;;1.60;0.80;;;;;;;;;;4869496;29;20056;-76
2023/09/21 12:38:50;;;;;;;0.93;0.60;;;;;;;;;;4874583;29;20033;-75
2023/09/21 12:41:16;;;;;;;1.23;0.63;;;;;;;;;;4868105;29;20090;-79
2023/09/21 12:43:43;;;;;;;1.50;0.90;;;;;;;;;;4854688;29;20041;-83
2023/09/21 12:46:09;;;;;;;2.15;0.90;;;;;;;;;;4875402;29;20037;-77
2023/09/21 12:48:38;;;;;;;2.17;0.70;;;;;;;;;;4863325;29;20121;-80
2023/09/21 12:51:05;;;;;;;3.33;0.90;;;;;;;;;;4874357;29;20044;-79
2023/09/21 12:53:31;;;;;;;2.05;1.00;;;;;;;;;;4862342;29;20041;-78
2023/09/21 12:55:57;;;;;;;2.10;0.93;;;;;;;;;;4879405;29;20037;-76
2023/09/21 12:58:23;;;;;;;1.25;0.50;;;;;;;;;;4857567;29;20440;-78
2023/09/21 13:00:49;;;;;;;2.60;1.15;;;;;;;;;;4878062;29;20387;-81
2023/09/21 13:03:16;;;;;;;4.63;1.90;;;;;;;;;;4862823;29;20033;-78
2023/09/21 13:05:45;;;;;;;2.25;0.75;;;;;;;;;;4876162;29;20064;-78
2023/09/21 13:08:12;;;;;;;1.60;0.80;;;;;;;;;;4878866;29;20045;-80
2023/09/21 13:10:40;;;;;;;5.35;2.38;;;;;;;;;;4879020;29;20025;-79
2023/09/21 13:13:06;;;;;;;1.45;0.68;;;;;;;;;;4870774;29;20484;-87
2023/09/21 13:15:32;;;;;;;1.77;0.95;;;;;;;;;;4870746;29;20036;-75
2023/09/21 13:17:58;;;;;;;3.70;0.80;;;;;;;;;;4877336;29;20029;-76
2023/09/21 13:20:24;;;;;;;2.40;1.48;;;;;;;;;;4878492;29;20399;-75
2023/09/21 13:22:51;;;;;;;6.63;1.30;;;;;;;;;;4878251;29;20485;-78
2023/09/21 13:25:17;;;;;;;4.22;1.65;;;;;;;;;;4878626;29;20040;-76
2023/09/21 13:27:44;;;;;;;1.45;1.10;;;;;;;;;;4877721;29;20406;-84
2023/09/21 13:30:11;;;;;;;3.10;1.60;;;;;;;;;;4872698;29;20060;-76
2023/09/21 13:32:37;;;;;;;2.03;1.35;;;;;;;;;;4876816;29;20074;-74
2023/09/21 13:35:04;;;;;;;3.28;1.58;;;;;;;;;;4867363;29;20069;-81
2023/09/21 13:37:31;;;;;;;0.93;0.68;;;;;;;;;;4865036;29;20223;-77
2023/09/21 13:39:57;;;;;;;1.83;0.80;;;;;;;;;;4875282;29;20513;-77
2023/09/21 13:42:23;;;;;;;3.35;3.05;;;;;;;;;;4877308;29;20045;-75
2023/09/21 13:44:49;;;;;;;1.55;0.80;;;;;;;;;;4874322;29;20344;-75
2023/09/21 13:47:15;;;;;;;1.58;0.60;;;;;;;;;;4876295;29;20045;-75
2023/09/21 13:49:41;;;;;;;2.28;1.23;;;;;;;;;;4874894;29;20037;-75
2023/09/21 13:52:07;;;;;;;3.40;0.70;;;;;;;;;;4877675;29;21271;-75
2023/09/21 13:54:33;;;;;;;2.17;0.88;;;;;;;;;;4877370;29;20523;-75
2023/09/21 13:57:00;;;;;;;0.98;0.70;;;;;;;;;;4878920;29;20068;-75
2023/09/21 13:59:26;;;;;;;1.45;0.70;;;;;;;;;;4875548;29;20033;-75
2023/09/21 14:01:52;;;;;;;1.58;1.23;;;;;;;;;;4878158;29;20052;-75
2023/09/21 14:04:18;;;;;;;0.88;0.70;;;;;;;;;;4875870;29;20041;-75
2023/09/21 14:06:44;;;;;;;1.30;0.65;;;;;;;;;;4875745;29;20068;-76
2023/09/21 14:09:10;;;;;;;2.33;0.75;;;;;;;;;;4875182;29;20120;-77
2023/09/21 14:11:36;;;;;;;1.10;0.60;;;;;;;;;;4874707;29;20040;-78
2023/09/21 14:14:06;;;;;;;1.58;1.00;;;;;;;;;;4875531;29;20037;-77
2023/09/21 14:16:32;;;;;;;1.15;0.90;;;;;;;;;;4878151;29;20041;-75
2023/09/21 14:18:58;;;;;;;0.90;0.70;;;;;;;;;;4878194;29;20088;-77
2023/09/21 14:21:26;;;;;;;1.85;0.80;;;;;;;;;;4875202;29;20040;-78
2023/09/21 14:23:52;;;;;;;1.38;0.77;;;;;;;;;;4875194;29;20029;-75
2023/09/21 14:26:19;;;;;;;1.15;0.63;;;;;;;;;;4873388;29;20074;-79
2023/09/21 14:28:46;;;;;;;0.80;0.80;;;;;;;;;;4873301;29;20096;-79
2023/09/21 14:31:12;;;;;;;2.08;0.70;;;;;;;;;;4867082;29;20041;-80
2023/09/21 14:33:38;;;;;;;0.60;0.60;;;;;;;;;;4864444;29;20034;-81
2023/09/21 14:36:04;;;;;;;6.28;0.70;;;;;;;;;;4871436;29;20040;-80
2023/09/21 14:38:30;;;;;;;1.15;0.65;;;;;;;;;;4864351;29;20040;-78
2023/09/21 14:40:56;;;;;;;0.80;0.60;;;;;;;;;;4866453;29;20041;-79
2023/09/21 14:43:22;;;;;;;1.00;0.60;;;;;;;;;;4871905;29;20120;-76